Time;durP1;ratioP1;P1;durP2;ratioP2;P2;SDS_P1;SDS_P2;PMS_P1;PMS_P2;Temp;Humidity;BMP_temperature;BMP_pressure;BME280_temperature;BME280_humidity;BME280_pressure;Samples;Min_cycle;Max_cycle;Signal;HPM_P1;HPM_P2
2022/03/19 00:00:33;;;;;;;;;;;;;;;;;;2081965;28;19932;-48
2022/03/19 00:01:35;;;;;;;;;;;;;;;;;;2081998;28;20374;-49
2022/03/19 00:02:36;;;;;;;;;;;;;;;;;;2082062;28;19925;-43
2022/03/19 00:03:37;;;;;;;;;;;;;;;;;;2081821;28;20015;-42
2022/03/19 00:04:38;;;;;;;;;;;;;;;;;;2081974;28;19991;-43
2022/03/19 00:05:39;;;;;;;;;;;;;;;;;;2081789;28;20016;-43
2022/03/19 00:06:40;;;;;;;;;;;;;;;;;;2081941;28;19967;-43
2022/03/19 00:07:42;;;;;;;;;;;;;;;;;;2074323;28;19983;-50
2022/03/19 00:08:43;;;;;;;;;;;;;;;;;;2081041;28;19968;-48
2022/03/19 00:09:44;;;;;;;;;;;;;;;;;;2081876;28;19977;-50
2022/03/19 00:10:45;;;;;;;;;;;;;;;;;;2081633;28;19980;-43
2022/03/19 00:11:47;;;;;;;;;;;;;;;;;;2082184;28;19925;-43
2022/03/19 00:12:49;;;;;;;;;;;;;;;;;;2082327;28;19939;-43
2022/03/19 00:13:50;;;;;;;;;;;;;;;;;;2082039;28;20011;-43
2022/03/19 00:14:51;;;;;;;;;;;;;;;;;;2082137;28;20353;-43
2022/03/19 00:15:52;;;;;;;;;;;;;;;;;;2081756;28;19925;-43
2022/03/19 00:16:53;;;;;;;;;;;;;;;;;;2082059;28;19925;-48
2022/03/19 00:17:57;;;;;;;;;;;;;;;;;;2081749;28;19932;-48
2022/03/19 00:18:58;;;;;;;;;;;;;;;;;;2081545;28;20373;-48
2022/03/19 00:19:59;;;;;;;;;;;;;;;;;;2082197;28;20435;-43
2022/03/19 00:21:00;;;;;;;;;;;;;;;;;;2081555;28;20390;-43
2022/03/19 00:22:01;;;;;;;;;;;;;;;;;;2081680;28;20413;-43
2022/03/19 00:23:02;;;;;;;;;;;;;;;;;;2082028;28;20461;-48
2022/03/19 00:24:04;;;;;;;;;;;;;;;;;;2081892;28;19937;-48
2022/03/19 00:25:05;;;;;;;;;;;;;;;;;;2080764;28;20012;-48
2022/03/19 00:26:06;;;;;;;;;;;;;;;;;;2079987;28;20325;-48
2022/03/19 00:27:07;;;;;;;;;;;;;;;;;;2082080;28;20422;-48
2022/03/19 00:28:08;;;;;;;;;;;;;;;;;;2082229;28;19948;-48
2022/03/19 00:29:09;;;;;;;;;;;;;;;;;;2081521;28;19991;-47
2022/03/19 00:30:11;;;;;;;;;;;;;;;;;;2081902;28;19929;-43
2022/03/19 00:31:12;;;;;;;;;;;;;;;;;;2081424;28;19929;-42
2022/03/19 00:32:13;;;;;;;;;;;;;;;;;;2081248;28;19925;-43
2022/03/19 00:33:14;;;;;;;;;;;;;;;;;;2081806;28;19972;-43
2022/03/19 00:34:15;;;;;;;;;;;;;;;;;;2081685;28;20008;-43
2022/03/19 00:35:17;;;;;;;;;;;;;;;;;;2081864;28;19931;-43
2022/03/19 00:36:18;;;;;;;;;;;;;;;;;;2080912;28;20533;-43
2022/03/19 00:37:19;;;;;;;;;;;;;;;;;;2081983;28;20015;-42
2022/03/19 00:38:20;;;;;;;;;;;;;;;;;;2081436;28;20162;-43
2022/03/19 00:39:21;;;;;;;;;;;;;;;;;;2081829;28;19984;-43
2022/03/19 00:40:22;;;;;;;;;;;;;;;;;;2081267;28;20021;-43
2022/03/19 00:41:23;;;;;;;;;;;;;;;;;;2081497;28;20016;-43
2022/03/19 00:42:25;;;;;;;;;;;;;;;;;;2080855;28;19925;-43
2022/03/19 00:43:25;;;;;;;;;;;;;;;;;;2082071;28;19925;-43
2022/03/19 00:44:27;;;;;;;;;;;;;;;;;;2081742;28;20012;-43
2022/03/19 00:45:28;;;;;;;;;;;;;;;;;;2081615;28;20008;-43
2022/03/19 00:46:30;;;;;;;;;;;;;;;;;;2081426;28;20016;-43
2022/03/19 00:47:31;;;;;;;;;;;;;;;;;;2081808;28;19929;-42
2022/03/19 00:48:32;;;;;;;;;;;;;;;;;;2081698;28;20020;-43
2022/03/19 00:49:34;;;;;;;;;;;;;;;;;;2081977;28;20036;-43
2022/03/19 00:50:35;;;;;;;;;;;;;;;;;;2081231;28;19925;-45
2022/03/19 00:51:38;;;;;;;;;;;;;;;;;;2081297;28;20483;-44
2022/03/19 00:52:40;;;;;;;;;;;;;;;;;;2080604;28;20056;-43
2022/03/19 00:53:41;;;;;;;;;;;;;;;;;;2081583;28;19991;-42
2022/03/19 00:54:42;;;;;;;;;;;;;;;;;;2081353;28;19925;-42
2022/03/19 00:55:43;;;;;;;;;;;;;;;;;;2080024;28;19982;-42
2022/03/19 00:56:46;;;;;;;;;;;;;;;;;;2081255;28;20020;-43
2022/03/19 00:57:47;;;;;;;;;;;;;;;;;;2081630;28;19975;-42
2022/03/19 00:58:48;;;;;;;;;;;;;;;;;;2080752;28;19995;-42
2022/03/19 00:59:49;;;;;;;;;;;;;;;;;;2081990;28;20477;-42
2022/03/19 01:00:50;;;;;;;;;;;;;;;;;;2081128;28;20031;-43
2022/03/19 01:01:51;;;;;;;;;;;;;;;;;;2081212;28;19925;-43
2022/03/19 01:02:53;;;;;;;;;;;;;;;;;;2081482;28;20329;-43
2022/03/19 01:03:54;;;;;;;;;;;;;;;;;;2081796;28;19925;-43
2022/03/19 01:04:55;;;;;;;;;;;;;;;;;;2080820;28;20016;-43
2022/03/19 01:05:56;;;;;;;;;;;;;;;;;;2081154;28;19971;-43
2022/03/19 01:06:58;;;;;;;;;;;;;;;;;;2081840;28;20016;-43
2022/03/19 01:07:59;;;;;;;;;;;;;;;;;;2081431;28;20063;-43
2022/03/19 01:09:00;;;;;;;;;;;;;;;;;;2081169;28;20224;-43
2022/03/19 01:10:01;;;;;;;;;;;;;;;;;;2081572;28;20015;-43
2022/03/19 01:11:03;;;;;;;;;;;;;;;;;;2081538;28;20339;-43
2022/03/19 01:12:04;;;;;;;;;;;;;;;;;;2081454;28;20004;-43
2022/03/19 01:13:05;;;;;;;;;;;;;;;;;;2081694;28;20059;-43
2022/03/19 01:14:06;;;;;;;;;;;;;;;;;;2081746;28;20011;-43
2022/03/19 01:15:08;;;;;;;;;;;;;;;;;;2081679;28;20023;-48
2022/03/19 01:16:10;;;;;;;;;;;;;;;;;;2081327;28;20015;-49
2022/03/19 01:17:11;;;;;;;;;;;;;;;;;;2081517;28;19936;-50
2022/03/19 01:18:12;;;;;;;;;;;;;;;;;;2081923;28;20020;-47
2022/03/19 01:19:13;;;;;;;;;;;;;;;;;;2081582;28;19929;-47
2022/03/19 01:20:15;;;;;;;;;;;;;;;;;;2080736;28;19932;-50
2022/03/19 01:21:16;;;;;;;;;;;;;;;;;;2081120;28;20023;-49
2022/03/19 01:22:18;;;;;;;;;;;;;;;;;;2080918;28;20333;-49
2022/03/19 01:23:20;;;;;;;;;;;;;;;;;;2080936;28;20433;-47
2022/03/19 01:24:21;;;;;;;;;;;;;;;;;;2081885;28;19933;-47
2022/03/19 01:25:22;;;;;;;;;;;;;;;;;;2081349;28;19933;-48
2022/03/19 01:26:24;;;;;;;;;;;;;;;;;;2081633;28;19971;-49
2022/03/19 01:27:25;;;;;;;;;;;;;;;;;;2080593;28;20546;-51
2022/03/19 01:28:26;;;;;;;;;;;;;;;;;;2081269;28;20425;-47
2022/03/19 01:29:27;;;;;;;;;;;;;;;;;;2081508;28;20144;-48
2022/03/19 01:30:29;;;;;;;;;;;;;;;;;;2081271;28;19932;-47
2022/03/19 01:31:30;;;;;;;;;;;;;;;;;;2081469;28;19928;-48
2022/03/19 01:32:31;;;;;;;;;;;;;;;;;;2080834;28;19929;-50
2022/03/19 01:33:32;;;;;;;;;;;;;;;;;;2081492;28;20298;-47
2022/03/19 01:34:33;;;;;;;;;;;;;;;;;;2081651;28;20020;-48
2022/03/19 01:35:34;;;;;;;;;;;;;;;;;;2081120;28;20019;-47
2022/03/19 01:36:36;;;;;;;;;;;;;;;;;;2081738;28;19926;-48
2022/03/19 01:37:37;;;;;;;;;;;;;;;;;;2081360;28;20015;-47
2022/03/19 01:38:38;;;;;;;;;;;;;;;;;;2080852;28;20434;-49
2022/03/19 01:39:39;;;;;;;;;;;;;;;;;;2081469;28;20434;-48
2022/03/19 01:40:40;;;;;;;;;;;;;;;;;;2081423;28;19965;-43
2022/03/19 01:41:41;;;;;;;;;;;;;;;;;;2081080;28;20116;-44
2022/03/19 01:42:43;;;;;;;;;;;;;;;;;;2081500;28;19926;-43
2022/03/19 01:43:44;;;;;;;;;;;;;;;;;;2080937;28;19931;-43
2022/03/19 01:44:45;;;;;;;;;;;;;;;;;;2080798;28;19936;-43
2022/03/19 01:45:46;;;;;;;;;;;;;;;;;;2081226;28;20059;-43
2022/03/19 01:46:47;;;;;;;;;;;;;;;;;;2080750;28;19925;-43
2022/03/19 01:47:48;;;;;;;;;;;;;;;;;;2081564;28;19925;-43
2022/03/19 01:48:49;;;;;;;;;;;;;;;;;;2081132;28;20053;-43
2022/03/19 01:49:51;;;;;;;;;;;;;;;;;;2081434;28;20028;-43
2022/03/19 01:50:52;;;;;;;;;;;;;;;;;;2081206;28;19979;-42
2022/03/19 01:51:53;;;;;;;;;;;;;;;;;;2081103;28;19925;-43
2022/03/19 01:52:55;;;;;;;;;;;;;;;;;;2080562;28;20011;-43
2022/03/19 01:53:56;;;;;;;;;;;;;;;;;;2081656;28;20399;-43
2022/03/19 01:54:57;;;;;;;;;;;;;;;;;;2081350;28;19965;-43
2022/03/19 01:55:58;;;;;;;;;;;;;;;;;;2081254;28;20004;-43
2022/03/19 01:56:59;;;;;;;;;;;;;;;;;;2081317;28;20176;-43
2022/03/19 01:58:00;;;;;;;;;;;;;;;;;;2081081;28;20012;-42
2022/03/19 01:59:01;;;;;;;;;;;;;;;;;;2080579;28;20036;-43
2022/03/19 02:00:03;;;;;;;;;;;;;;;;;;2081516;28;19931;-43
2022/03/19 02:01:04;;;;;;;;;;;;;;;;;;2081071;28;20374;-47
2022/03/19 02:02:05;;;;;;;;;;;;;;;;;;2080892;28;20383;-51
2022/03/19 02:03:06;;;;;;;;;;;;;;;;;;2081286;28;19956;-48
2022/03/19 02:04:08;;;;;;;;;;;;;;;;;;2081372;28;19956;-49
2022/03/19 02:05:09;;;;;;;;;;;;;;;;;;2081228;28;20264;-47
2022/03/19 02:06:10;;;;;;;;;;;;;;;;;;2080123;28;19944;-50
2022/03/19 02:07:11;;;;;;;;;;;;;;;;;;2079799;28;20142;-48
2022/03/19 02:08:13;;;;;;;;;;;;;;;;;;2081276;28;19936;-48
2022/03/19 02:09:14;;;;;;;;;;;;;;;;;;2080706;28;19991;-48
2022/03/19 02:10:15;;;;;;;;;;;;;;;;;;2081253;28;20004;-49
2022/03/19 02:11:16;;;;;;;;;;;;;;;;;;2080971;28;20000;-47
2022/03/19 02:12:18;;;;;;;;;;;;;;;;;;2080770;28;19987;-50
2022/03/19 02:13:18;;;;;;;;;;;;;;;;;;2080932;28;19929;-49
2022/03/19 02:14:20;;;;;;;;;;;;;;;;;;2080907;28;20059;-48
2022/03/19 02:15:24;;;;;;;;;;;;;;;;;;2080426;28;20298;-48
2022/03/19 02:16:25;;;;;;;;;;;;;;;;;;2080620;28;20095;-48
2022/03/19 02:17:26;;;;;;;;;;;;;;;;;;2081248;28;20003;-48
2022/03/19 02:18:28;;;;;;;;;;;;;;;;;;2081008;28;19925;-47
2022/03/19 02:19:29;;;;;;;;;;;;;;;;;;2080985;28;20011;-47
2022/03/19 02:20:30;;;;;;;;;;;;;;;;;;2081229;28;19929;-50
2022/03/19 02:21:31;;;;;;;;;;;;;;;;;;2080376;28;19926;-48
2022/03/19 02:22:32;;;;;;;;;;;;;;;;;;2081088;28;20035;-47
2022/03/19 02:26:12;;;;;;;;;;;;;;;;;;2081062;28;20493;-48
2022/03/19 02:27:15;;;;;;;;;;;;;;;;;;2081003;28;19929;-48
2022/03/19 02:28:16;;;;;;;;;;;;;;;;;;2081583;28;19979;-43
2022/03/19 02:29:19;;;;;;;;;;;;;;;;;;2080757;28;20011;-43
2022/03/19 02:30:20;;;;;;;;;;;;;;;;;;2080410;28;19995;-43
2022/03/19 02:31:21;;;;;;;;;;;;;;;;;;2080990;28;20425;-44
2022/03/19 02:32:23;;;;;;;;;;;;;;;;;;2080857;28;19925;-42
2022/03/19 02:33:25;;;;;;;;;;;;;;;;;;2080119;28;19933;-43
2022/03/19 02:34:26;;;;;;;;;;;;;;;;;;2081258;28;19972;-43
2022/03/19 02:35:27;;;;;;;;;;;;;;;;;;2080886;28;20027;-43
2022/03/19 02:36:29;;;;;;;;;;;;;;;;;;2080550;28;20024;-43
2022/03/19 02:37:30;;;;;;;;;;;;;;;;;;2080950;28;19933;-43
2022/03/19 02:38:31;;;;;;;;;;;;;;;;;;2080747;28;20406;-43
2022/03/19 02:39:32;;;;;;;;;;;;;;;;;;2080652;28;19955;-43
2022/03/19 02:40:33;;;;;;;;;;;;;;;;;;2080611;28;19933;-42
2022/03/19 02:41:34;;;;;;;;;;;;;;;;;;2081140;28;20020;-43
2022/03/19 02:42:36;;;;;;;;;;;;;;;;;;2080356;28;20004;-43
2022/03/19 02:43:37;;;;;;;;;;;;;;;;;;2081425;28;20019;-43
2022/03/19 02:44:38;;;;;;;;;;;;;;;;;;2081100;28;19957;-43
2022/03/19 02:45:39;;;;;;;;;;;;;;;;;;2081054;28;20329;-48
2022/03/19 02:46:40;;;;;;;;;;;;;;;;;;2080856;28;19976;-48
2022/03/19 02:48:57;;;;;;;;;;;;;;;;;;2081180;28;20029;-47
2022/03/19 02:49:58;;;;;;;;;;;;;;;;;;2080941;28;20016;-48
2022/03/19 02:51:00;;;;;;;;;;;;;;;;;;2080537;28;20035;-49
2022/03/19 02:52:01;;;;;;;;;;;;;;;;;;2080789;28;20283;-48
2022/03/19 02:53:02;;;;;;;;;;;;;;;;;;2080716;28;20116;-49
2022/03/19 02:54:03;;;;;;;;;;;;;;;;;;2080735;28;20448;-48
2022/03/19 02:55:04;;;;;;;;;;;;;;;;;;2080976;28;19957;-50
2022/03/19 02:56:05;;;;;;;;;;;;;;;;;;2080630;28;20016;-48
2022/03/19 02:57:06;;;;;;;;;;;;;;;;;;2080589;28;19933;-49
2022/03/19 02:58:07;;;;;;;;;;;;;;;;;;2080694;28;20422;-48
2022/03/19 02:59:08;;;;;;;;;;;;;;;;;;2081145;28;19972;-48
2022/03/19 03:00:09;;;;;;;;;;;;;;;;;;2081217;28;20000;-50
2022/03/19 03:01:11;;;;;;;;;;;;;;;;;;2081070;28;19936;-49
2022/03/19 03:02:12;;;;;;;;;;;;;;;;;;2081156;28;20344;-50
2022/03/19 03:03:14;;;;;;;;;;;;;;;;;;2076283;28;20476;-52
2022/03/19 03:04:15;;;;;;;;;;;;;;;;;;2075406;28;19933;-43
2022/03/19 03:05:16;;;;;;;;;;;;;;;;;;2081121;28;20389;-43
2022/03/19 03:06:17;;;;;;;;;;;;;;;;;;2081046;28;19926;-43
2022/03/19 03:07:18;;;;;;;;;;;;;;;;;;2081162;28;20492;-43
2022/03/19 03:08:20;;;;;;;;;;;;;;;;;;2081258;28;20012;-43
2022/03/19 03:09:21;;;;;;;;;;;;;;;;;;2081060;28;19968;-43
2022/03/19 03:10:22;;;;;;;;;;;;;;;;;;2081144;28;19925;-43
2022/03/19 03:11:23;;;;;;;;;;;;;;;;;;2081099;28;20050;-43
2022/03/19 03:12:25;;;;;;;;;;;;;;;;;;2081026;28;19995;-43
2022/03/19 03:13:26;;;;;;;;;;;;;;;;;;2081068;28;19925;-43
2022/03/19 03:14:27;;;;;;;;;;;;;;;;;;2077532;28;19999;-42
2022/03/19 03:15:28;;;;;;;;;;;;;;;;;;2073332;28;20007;-44
2022/03/19 03:16:30;;;;;;;;;;;;;;;;;;2080905;28;20405;-44
2022/03/19 03:17:31;;;;;;;;;;;;;;;;;;2082512;28;20005;-44
2022/03/19 03:18:32;;;;;;;;;;;;;;;;;;2082414;28;20012;-44
2022/03/19 03:19:34;;;;;;;;;;;;;;;;;;2082418;28;20398;-44
2022/03/19 03:20:35;;;;;;;;;;;;;;;;;;2082395;28;20047;-43
2022/03/19 03:21:36;;;;;;;;;;;;;;;;;;2082027;28;20299;-44
2022/03/19 03:22:37;;;;;;;;;;;;;;;;;;2082442;28;20011;-43
2022/03/19 03:23:39;;;;;;;;;;;;;;;;;;2082408;28;20000;-44
2022/03/19 03:24:40;;;;;;;;;;;;;;;;;;2081518;28;19948;-44
2022/03/19 03:25:41;;;;;;;;;;;;;;;;;;2081860;28;20035;-43
2022/03/19 03:26:42;;;;;;;;;;;;;;;;;;2082331;28;20398;-44
2022/03/19 03:27:43;;;;;;;;;;;;;;;;;;2082366;28;19929;-44
2022/03/19 03:28:44;;;;;;;;;;;;;;;;;;2082474;28;20353;-43
2022/03/19 03:29:46;;;;;;;;;;;;;;;;;;2082411;28;19960;-44
2022/03/19 03:30:46;;;;;;;;;;;;;;;;;;2082457;28;19929;-44
2022/03/19 03:31:48;;;;;;;;;;;;;;;;;;2082286;28;19976;-44
2022/03/19 03:32:49;;;;;;;;;;;;;;;;;;2079759;28;19972;-44
2022/03/19 03:33:51;;;;;;;;;;;;;;;;;;2074347;28;20081;-44
2022/03/19 03:34:52;;;;;;;;;;;;;;;;;;2082038;28;19988;-49
2022/03/19 03:35:53;;;;;;;;;;;;;;;;;;2082625;28;19925;-51
2022/03/19 03:36:54;;;;;;;;;;;;;;;;;;2082316;28;20008;-49
2022/03/19 03:37:55;;;;;;;;;;;;;;;;;;2082417;28;20044;-51
2022/03/19 03:38:56;;;;;;;;;;;;;;;;;;2075017;28;19926;-49
2022/03/19 03:39:58;;;;;;;;;;;;;;;;;;2074296;28;19925;-48
2022/03/19 03:40:59;;;;;;;;;;;;;;;;;;2074390;28;20004;-51
2022/03/19 03:42:00;;;;;;;;;;;;;;;;;;2074228;28;19925;-48
2022/03/19 03:43:01;;;;;;;;;;;;;;;;;;2074070;28;20413;-50
2022/03/19 03:44:02;;;;;;;;;;;;;;;;;;2079173;28;19929;-49
2022/03/19 03:45:03;;;;;;;;;;;;;;;;;;2082355;28;20362;-48
2022/03/19 03:46:05;;;;;;;;;;;;;;;;;;2081098;28;19931;-52
2022/03/19 03:47:06;;;;;;;;;;;;;;;;;;2077512;28;19926;-51
2022/03/19 03:48:07;;;;;;;;;;;;;;;;;;2082760;28;20015;-44
2022/03/19 03:49:08;;;;;;;;;;;;;;;;;;2074349;28;20389;-44
2022/03/19 03:50:10;;;;;;;;;;;;;;;;;;2074503;28;20394;-44
2022/03/19 03:51:11;;;;;;;;;;;;;;;;;;2074138;28;20031;-44
2022/03/19 03:52:13;;;;;;;;;;;;;;;;;;2080202;28;19942;-44
2022/03/19 03:53:14;;;;;;;;;;;;;;;;;;2081305;28;20104;-44
2022/03/19 03:54:15;;;;;;;;;;;;;;;;;;2082293;28;20102;-44
2022/03/19 03:55:16;;;;;;;;;;;;;;;;;;2081465;28;20044;-44
2022/03/19 03:56:17;;;;;;;;;;;;;;;;;;2082181;28;20024;-44
2022/03/19 03:57:18;;;;;;;;;;;;;;;;;;2082270;28;20279;-44
2022/03/19 03:58:19;;;;;;;;;;;;;;;;;;2082311;28;20009;-44
2022/03/19 03:59:23;;;;;;;;;;;;;;;;;;2082488;28;20012;-44
2022/03/19 04:00:24;;;;;;;;;;;;;;;;;;2082289;28;20012;-44
2022/03/19 04:01:25;;;;;;;;;;;;;;;;;;2082289;28;20013;-44
2022/03/19 04:02:27;;;;;;;;;;;;;;;;;;2082279;28;19925;-44
2022/03/19 04:03:28;;;;;;;;;;;;;;;;;;2082262;28;19925;-44
2022/03/19 04:04:29;;;;;;;;;;;;;;;;;;2082374;28;20264;-44
2022/03/19 04:05:30;;;;;;;;;;;;;;;;;;2082220;28;20012;-44
2022/03/19 04:06:31;;;;;;;;;;;;;;;;;;2082508;28;20330;-44
2022/03/19 04:07:32;;;;;;;;;;;;;;;;;;2082130;28;20011;-44
2022/03/19 04:08:33;;;;;;;;;;;;;;;;;;2082239;28;19965;-44
2022/03/19 04:09:34;;;;;;;;;;;;;;;;;;2082687;28;19998;-44
2022/03/19 04:10:35;;;;;;;;;;;;;;;;;;2082313;28;20501;-51
2022/03/19 04:11:37;;;;;;;;;;;;;;;;;;2082380;28;20450;-44
2022/03/19 04:12:38;;;;;;;;;;;;;;;;;;2082204;28;20546;-46
2022/03/19 04:13:39;;;;;;;;;;;;;;;;;;2082078;28;20339;-44
2022/03/19 04:14:40;;;;;;;;;;;;;;;;;;2082443;28;19932;-44
2022/03/19 04:15:41;;;;;;;;;;;;;;;;;;2082151;28;20003;-44
2022/03/19 04:16:43;;;;;;;;;;;;;;;;;;2082065;28;19932;-44
2022/03/19 04:17:44;;;;;;;;;;;;;;;;;;2082158;28;19925;-44
2022/03/19 04:18:45;;;;;;;;;;;;;;;;;;2082603;28;20046;-44
2022/03/19 04:19:46;;;;;;;;;;;;;;;;;;2082121;28;20020;-44
2022/03/19 04:20:47;;;;;;;;;;;;;;;;;;2082101;28;19976;-44
2022/03/19 04:21:48;;;;;;;;;;;;;;;;;;2082132;28;20362;-44
2022/03/19 04:22:49;;;;;;;;;;;;;;;;;;2082147;28;19925;-44
2022/03/19 04:23:50;;;;;;;;;;;;;;;;;;2082452;28;20005;-44
2022/03/19 04:24:51;;;;;;;;;;;;;;;;;;2082141;28;20299;-51
2022/03/19 04:25:53;;;;;;;;;;;;;;;;;;2081528;28;19941;-51
2022/03/19 04:26:54;;;;;;;;;;;;;;;;;;2081659;28;19972;-49
2022/03/19 04:27:55;;;;;;;;;;;;;;;;;;2081471;28;19925;-50
2022/03/19 04:28:56;;;;;;;;;;;;;;;;;;2082047;28;19960;-49
2022/03/19 04:29:57;;;;;;;;;;;;;;;;;;2082183;28;19968;-49
2022/03/19 04:31:02;;;;;;;;;;;;;;;;;;2081509;28;19925;-50
2022/03/19 04:32:03;;;;;;;;;;;;;;;;;;2082244;28;20441;-48
2022/03/19 04:33:04;;;;;;;;;;;;;;;;;;2079951;28;20019;-51
2022/03/19 04:34:05;;;;;;;;;;;;;;;;;;2082335;28;19976;-49
2022/03/19 04:36:29;;;;;;;;;;;;;;;;;;2082254;28;20012;-51
2022/03/19 04:36:30;;;;;;;;;;;;;;;;;;2081944;28;19932;-49
2022/03/19 04:37:31;;;;;;;;;;;;;;;;;;2082678;28;20043;-43
2022/03/19 04:38:32;;;;;;;;;;;;;;;;;;2082418;28;20007;-50
2022/03/19 04:39:34;;;;;;;;;;;;;;;;;;2082152;28;19971;-43
2022/03/19 04:40:35;;;;;;;;;;;;;;;;;;2082023;28;20011;-44
2022/03/19 04:41:39;;;;;;;;;;;;;;;;;;2081919;28;19956;-44
2022/03/19 04:42:40;;;;;;;;;;;;;;;;;;2082062;28;20212;-44
2022/03/19 04:43:41;;;;;;;;;;;;;;;;;;2082358;28;19933;-51
2022/03/19 04:44:42;;;;;;;;;;;;;;;;;;2082254;28;20460;-44
2022/03/19 04:45:43;;;;;;;;;;;;;;;;;;2082212;28;20024;-49
2022/03/19 04:46:45;;;;;;;;;;;;;;;;;;2081847;28;20004;-49
2022/03/19 04:47:46;;;;;;;;;;;;;;;;;;2081934;28;19925;-49
2022/03/19 04:48:47;;;;;;;;;;;;;;;;;;2081707;28;19925;-44
2022/03/19 04:49:48;;;;;;;;;;;;;;;;;;2081729;28;19925;-44
2022/03/19 04:50:49;;;;;;;;;;;;;;;;;;2082148;28;20334;-49
2022/03/19 04:51:50;;;;;;;;;;;;;;;;;;2082010;28;20355;-49
2022/03/19 04:52:52;;;;;;;;;;;;;;;;;;2081880;28;20016;-52
2022/03/19 04:53:53;;;;;;;;;;;;;;;;;;2082026;28;19987;-48
2022/03/19 04:54:57;;;;;;;;;;;;;;;;;;2081775;28;20000;-49
2022/03/19 04:55:58;;;;;;;;;;;;;;;;;;2082034;28;19968;-49
2022/03/19 04:56:59;;;;;;;;;;;;;;;;;;2081849;28;19960;-49
2022/03/19 04:58:00;;;;;;;;;;;;;;;;;;2082257;28;19975;-44
2022/03/19 04:59:02;;;;;;;;;;;;;;;;;;2081885;28;20008;-44
2022/03/19 05:00:04;;;;;;;;;;;;;;;;;;2081562;28;20020;-44
2022/03/19 05:01:05;;;;;;;;;;;;;;;;;;2081546;28;19929;-44
2022/03/19 05:02:06;;;;;;;;;;;;;;;;;;2081838;28;19925;-44
2022/03/19 05:03:09;;;;;;;;;;;;;;;;;;2081447;28;20019;-44
2022/03/19 05:04:10;;;;;;;;;;;;;;;;;;2081868;28;19932;-44
2022/03/19 05:05:12;;;;;;;;;;;;;;;;;;2081755;28;20461;-44
2022/03/19 05:06:13;;;;;;;;;;;;;;;;;;2081829;28;19925;-44
2022/03/19 05:07:14;;;;;;;;;;;;;;;;;;2081971;28;20305;-44
2022/03/19 05:08:16;;;;;;;;;;;;;;;;;;2082083;28;19937;-49
2022/03/19 05:11:56;;;;;;;;;;;;;;;;;;2080936;28;20004;-44
2022/03/19 05:12:58;;;;;;;;;;;;;;;;;;2081435;28;20397;-44
2022/03/19 05:13:59;;;;;;;;;;;;;;;;;;2081705;28;19925;-43
2022/03/19 05:15:01;;;;;;;;;;;;;;;;;;2080001;28;20059;-44
2022/03/19 05:16:02;;;;;;;;;;;;;;;;;;2080922;28;19991;-50
2022/03/19 05:17:03;;;;;;;;;;;;;;;;;;2079713;28;19947;-48
2022/03/19 05:18:05;;;;;;;;;;;;;;;;;;2079215;28;19963;-49
2022/03/19 05:19:08;;;;;;;;;;;;;;;;;;2081565;28;19925;-50
2022/03/19 05:20:10;;;;;;;;;;;;;;;;;;2081679;28;19926;-50
2022/03/19 05:21:12;;;;;;;;;;;;;;;;;;2081607;28;19996;-49
2022/03/19 05:22:13;;;;;;;;;;;;;;;;;;2081793;28;20361;-52
2022/03/19 05:23:14;;;;;;;;;;;;;;;;;;2081846;28;20001;-50
2022/03/19 05:24:15;;;;;;;;;;;;;;;;;;2081626;28;20012;-48
2022/03/19 05:25:16;;;;;;;;;;;;;;;;;;2081976;28;20286;-49
2022/03/19 05:26:17;;;;;;;;;;;;;;;;;;2081685;28;19925;-52
2022/03/19 05:27:18;;;;;;;;;;;;;;;;;;2081919;28;19999;-44
2022/03/19 05:28:20;;;;;;;;;;;;;;;;;;2081717;28;19975;-44
2022/03/19 05:29:26;;;;;;;;;;;;;;;;;;2081857;28;19925;-44
2022/03/19 05:30:27;;;;;;;;;;;;;;;;;;2080591;28;19925;-43
2022/03/19 05:31:28;;;;;;;;;;;;;;;;;;2081269;28;20294;-44
2022/03/19 05:32:29;;;;;;;;;;;;;;;;;;2081449;28;20349;-44
2022/03/19 05:34:46;;;;;;;;;;;;;;;;;;2056447;28;20450;-44
2022/03/19 05:35:48;;;;;;;;;;;;;;;;;;2075066;28;19931;-49
2022/03/19 05:36:49;;;;;;;;;;;;;;;;;;2081725;28;19932;-50
2022/03/19 05:37:50;;;;;;;;;;;;;;;;;;2081561;28;20032;-48
2022/03/19 05:38:52;;;;;;;;;;;;;;;;;;2081369;28;20059;-48
2022/03/19 05:39:55;;;;;;;;;;;;;;;;;;2081566;28;20008;-49
2022/03/19 05:40:56;;;;;;;;;;;;;;;;;;2081680;28;19925;-49
2022/03/19 05:41:57;;;;;;;;;;;;;;;;;;2080862;28;19940;-44
2022/03/19 05:42:58;;;;;;;;;;;;;;;;;;2080239;28;20307;-44
2022/03/19 05:43:59;;;;;;;;;;;;;;;;;;2079788;28;20015;-44
2022/03/19 05:45:00;;;;;;;;;;;;;;;;;;2081587;28;19925;-44
2022/03/19 05:46:01;;;;;;;;;;;;;;;;;;2080302;28;19979;-44
2022/03/19 05:47:03;;;;;;;;;;;;;;;;;;2080522;28;20000;-51
2022/03/19 05:48:04;;;;;;;;;;;;;;;;;;2080723;28;20016;-52
2022/03/19 05:49:05;;;;;;;;;;;;;;;;;;2080622;28;20015;-53
2022/03/19 05:50:06;;;;;;;;;;;;;;;;;;2080528;28;20290;-50
2022/03/19 05:51:07;;;;;;;;;;;;;;;;;;2078816;28;20075;-49
2022/03/19 05:52:10;;;;;;;;;;;;;;;;;;2080149;28;19933;-48
2022/03/19 05:53:11;;;;;;;;;;;;;;;;;;2079190;28;20016;-44
2022/03/19 05:54:12;;;;;;;;;;;;;;;;;;2081445;28;20386;-45
2022/03/19 05:55:13;;;;;;;;;;;;;;;;;;2081725;28;20346;-49
2022/03/19 05:56:16;;;;;;;;;;;;;;;;;;2081458;28;20409;-51
2022/03/19 05:57:18;;;;;;;;;;;;;;;;;;2081928;28;19929;-44
2022/03/19 05:58:19;;;;;;;;;;;;;;;;;;2077920;28;20013;-44
2022/03/19 05:59:21;;;;;;;;;;;;;;;;;;2073565;28;20016;-44
2022/03/19 06:00:22;;;;;;;;;;;;;;;;;;2074522;28;20016;-44
2022/03/19 06:01:26;;;;;;;;;;;;;;;;;;2073570;28;19937;-45
2022/03/19 06:02:27;;;;;;;;;;;;;;;;;;2073674;28;20450;-44
2022/03/19 06:03:28;;;;;;;;;;;;;;;;;;2073352;28;19968;-44
2022/03/19 06:04:29;;;;;;;;;;;;;;;;;;2079333;28;19925;-45
2022/03/19 06:05:30;;;;;;;;;;;;;;;;;;2080701;28;19925;-44
2022/03/19 06:06:31;;;;;;;;;;;;;;;;;;2080329;28;20180;-44
2022/03/19 06:07:33;;;;;;;;;;;;;;;;;;2080222;28;19933;-49
2022/03/19 06:08:34;;;;;;;;;;;;;;;;;;2080639;28;19972;-52
2022/03/19 06:09:35;;;;;;;;;;;;;;;;;;2080599;28;19933;-49
2022/03/19 06:10:36;;;;;;;;;;;;;;;;;;2080334;28;19933;-49
2022/03/19 06:11:38;;;;;;;;;;;;;;;;;;2079924;28;19979;-50
2022/03/19 06:12:40;;;;;;;;;;;;;;;;;;2078971;28;19968;-48
2022/03/19 06:13:41;;;;;;;;;;;;;;;;;;2077993;28;19987;-50
2022/03/19 06:14:43;;;;;;;;;;;;;;;;;;2077804;28;20387;-50
2022/03/19 06:15:44;;;;;;;;;;;;;;;;;;2078670;28;19979;-45
2022/03/19 06:16:45;;;;;;;;;;;;;;;;;;2077923;28;20023;-44
2022/03/19 06:17:46;;;;;;;;;;;;;;;;;;2079017;28;19967;-48
2022/03/19 06:18:50;;;;;;;;;;;;;;;;;;2078776;28;20016;-49
2022/03/19 06:19:51;;;;;;;;;;;;;;;;;;2077818;28;19999;-51
2022/03/19 06:20:52;;;;;;;;;;;;;;;;;;2078099;28;20000;-44
2022/03/19 06:21:54;;;;;;;;;;;;;;;;;;2078369;28;20136;-44
2022/03/19 06:22:55;;;;;;;;;;;;;;;;;;2078069;28;20023;-44
2022/03/19 06:23:56;;;;;;;;;;;;;;;;;;2079567;28;19972;-50
2022/03/19 06:24:57;;;;;;;;;;;;;;;;;;2078547;28;20481;-50
2022/03/19 06:25:58;;;;;;;;;;;;;;;;;;2077749;28;20077;-48
2022/03/19 06:26:59;;;;;;;;;;;;;;;;;;2077974;28;20041;-47
2022/03/19 06:28:00;;;;;;;;;;;;;;;;;;2077894;28;19933;-52
2022/03/19 06:29:01;;;;;;;;;;;;;;;;;;2079085;28;19990;-49
2022/03/19 06:30:03;;;;;;;;;;;;;;;;;;2080580;28;20374;-48
2022/03/19 06:31:04;;;;;;;;;;;;;;;;;;2080499;28;19925;-50
2022/03/19 06:32:05;;;;;;;;;;;;;;;;;;2079752;28;20012;-50
2022/03/19 06:33:06;;;;;;;;;;;;;;;;;;2079919;28;19932;-49
2022/03/19 06:34:08;;;;;;;;;;;;;;;;;;2067444;28;20043;-52
2022/03/19 06:35:09;;;;;;;;;;;;;;;;;;2076316;28;19925;-50
2022/03/19 06:37:29;;;;;;;;;;;;;;;;;;2078573;28;20307;-43
2022/03/19 06:38:30;;;;;;;;;;;;;;;;;;2080464;28;19944;-44
2022/03/19 06:39:31;;;;;;;;;;;;;;;;;;2079673;28;19998;-44
2022/03/19 06:40:32;;;;;;;;;;;;;;;;;;2079575;28;20379;-44
2022/03/19 06:41:33;;;;;;;;;;;;;;;;;;2079583;28;20052;-44
2022/03/19 06:42:35;;;;;;;;;;;;;;;;;;2078603;28;19956;-45
2022/03/19 06:43:36;;;;;;;;;;;;;;;;;;2079551;28;20008;-44
2022/03/19 06:44:38;;;;;;;;;;;;;;;;;;2081387;28;19925;-49
2022/03/19 06:45:39;;;;;;;;;;;;;;;;;;2081343;28;20464;-44
2022/03/19 06:46:41;;;;;;;;;;;;;;;;;;2079987;28;19972;-51
2022/03/19 06:47:42;;;;;;;;;;;;;;;;;;2079123;28;19976;-48
2022/03/19 06:48:43;;;;;;;;;;;;;;;;;;2079582;28;19944;-48
2022/03/19 06:49:45;;;;;;;;;;;;;;;;;;2078555;28;19991;-44
2022/03/19 06:50:45;;;;;;;;;;;;;;;;;;2078358;28;19964;-51
2022/03/19 06:51:47;;;;;;;;;;;;;;;;;;2078598;28;19939;-50
2022/03/19 06:52:48;;;;;;;;;;;;;;;;;;2079439;28;19933;-52
2022/03/19 06:53:49;;;;;;;;;;;;;;;;;;2080206;28;20374;-50
2022/03/19 06:54:50;;;;;;;;;;;;;;;;;;2078861;28;20454;-52
2022/03/19 06:55:51;;;;;;;;;;;;;;;;;;2078991;28;20373;-49
2022/03/19 06:56:54;;;;;;;;;;;;;;;;;;2078648;28;20425;-52
2022/03/19 06:57:56;;;;;;;;;;;;;;;;;;2078037;28;19933;-53
2022/03/19 06:58:57;;;;;;;;;;;;;;;;;;2077952;28;19933;-51
2022/03/19 07:00:00;;;;;;;;;;;;;;;;;;2079158;28;20299;-43
2022/03/19 07:01:01;;;;;;;;;;;;;;;;;;2079451;28;19996;-44
2022/03/19 07:02:02;;;;;;;;;;;;;;;;;;2080555;28;19935;-43
2022/03/19 07:03:03;;;;;;;;;;;;;;;;;;2077161;28;19981;-44
2022/03/19 07:04:05;;;;;;;;;;;;;;;;;;2077506;28;19925;-44
2022/03/19 07:05:06;;;;;;;;;;;;;;;;;;2078170;28;20015;-44
2022/03/19 07:06:07;;;;;;;;;;;;;;;;;;2076504;28;19941;-43
2022/03/19 07:07:28;;;;;;;;;;;;;;;;;;2077498;28;19925;-44
2022/03/19 07:08:32;;;;;;;;;;;;;;;;;;2077858;28;19929;-44